createdAt,value
2022-09-14T00:01:44.841Z,18.80
2022-09-14T00:04:15.685Z,18.80
2022-09-14T00:06:44.641Z,18.80
2022-09-14T00:09:17.103Z,18.80
2022-09-14T00:11:46.587Z,18.80
2022-09-14T00:14:15.436Z,18.70
2022-09-14T00:16:45.569Z,18.70
2022-09-14T00:19:19.319Z,18.70
2022-09-14T00:21:52.103Z,18.70
2022-09-14T00:24:21.374Z,18.70
2022-09-14T00:26:50.225Z,18.70
2022-09-14T00:29:19.633Z,18.70
2022-09-14T00:31:49.461Z,18.70
2022-09-14T00:34:18.906Z,18.70
2022-09-14T00:36:49.388Z,18.70
2022-09-14T00:39:19.538Z,18.70
2022-09-14T00:41:49.586Z,18.70
2022-09-14T00:44:55.804Z,18.70
2022-09-14T00:47:25.957Z,18.70
2022-09-14T00:49:54.787Z,18.60
2022-09-14T00:52:26.040Z,18.60
2022-09-14T00:54:57.070Z,18.50
2022-09-14T00:57:28.680Z,18.70
2022-09-14T00:59:58.275Z,18.60
2022-09-14T01:02:29.481Z,18.60
2022-09-14T01:04:58.285Z,18.60
2022-09-14T01:07:39.235Z,18.60
2022-09-14T01:10:20.360Z,18.60
2022-09-14T01:12:59.049Z,18.60
2022-09-14T01:15:37.251Z,18.60
2022-09-14T01:18:14.753Z,18.50
2022-09-14T01:20:50.881Z,18.60
2022-09-14T01:23:27.955Z,18.50
2022-09-14T01:26:16.135Z,18.50
2022-09-14T01:28:51.661Z,18.60
2022-09-14T01:31:26.563Z,18.50
2022-09-14T01:34:00.975Z,18.50
2022-09-14T01:36:32.962Z,18.60
2022-09-14T01:39:02.730Z,18.50
2022-09-14T01:41:33.960Z,18.50
2022-09-14T01:44:09.493Z,18.50
2022-09-14T01:46:41.710Z,18.60
2022-09-14T01:49:16.421Z,18.60
2022-09-14T01:51:48.100Z,18.50
2022-09-14T01:54:23.104Z,18.50
2022-09-14T01:56:54.934Z,18.50
2022-09-14T01:59:27.318Z,18.50
2022-09-14T02:02:01.861Z,18.60
2022-09-14T02:04:38.470Z,18.50
2022-09-14T02:07:07.682Z,18.50
2022-09-14T02:09:36.291Z,18.50
2022-09-14T02:12:05.545Z,18.50
2022-09-14T02:14:35.566Z,18.50
2022-09-14T02:17:04.217Z,18.50
2022-09-14T02:19:36.601Z,18.50
2022-09-14T02:22:05.328Z,18.50
2022-09-14T02:24:34.133Z,18.50
2022-09-14T02:27:04.080Z,18.50
2022-09-14T02:29:32.718Z,18.50
2022-09-14T02:32:14.203Z,18.50
2022-09-14T02:34:51.940Z,18.40
2022-09-14T02:37:25.421Z,18.40
2022-09-14T02:40:02.480Z,18.40
2022-09-14T02:42:40.445Z,18.40
2022-09-14T02:45:18.953Z,18.40
2022-09-14T02:47:55.885Z,18.50
2022-09-14T02:50:29.681Z,18.40
2022-09-14T02:53:05.086Z,18.40
2022-09-14T02:55:39.025Z,18.40
2022-09-14T02:58:09.492Z,18.40
2022-09-14T03:00:40.519Z,18.40
2022-09-14T03:03:12.630Z,18.50
2022-09-14T03:05:41.788Z,18.40
2022-09-14T03:08:11.635Z,18.40
2022-09-14T03:10:43.490Z,18.40
2022-09-14T03:13:12.222Z,18.40
2022-09-14T03:15:41.433Z,18.40
2022-09-14T03:18:14.472Z,18.40
2022-09-14T03:20:43.368Z,18.40
2022-09-14T03:23:13.108Z,18.40
2022-09-14T03:25:43.249Z,18.40
2022-09-14T03:28:13.162Z,18.40
2022-09-14T03:30:42.097Z,18.40
2022-09-14T03:33:12.125Z,18.40
2022-09-14T03:35:40.572Z,18.50
2022-09-14T03:38:09.037Z,18.30
2022-09-14T03:40:37.525Z,18.40
2022-09-14T03:43:06.062Z,18.30
2022-09-14T03:45:34.543Z,18.40
2022-09-14T03:48:03.414Z,18.30
2022-09-14T03:50:33.311Z,18.40
2022-09-14T03:53:01.777Z,18.30
2022-09-14T03:55:30.226Z,18.40
2022-09-14T03:57:58.658Z,18.40
2022-09-14T04:00:27.446Z,18.40
2022-09-14T04:02:55.969Z,18.40
2022-09-14T04:05:24.482Z,18.30
2022-09-14T04:07:54.301Z,18.40
2022-09-14T04:10:22.815Z,18.40
2022-09-14T04:12:51.242Z,18.40
2022-09-14T04:15:19.939Z,18.40
2022-09-14T04:17:48.654Z,18.40
2022-09-14T04:20:18.294Z,18.30
2022-09-14T04:22:47.484Z,18.40
2022-09-14T04:25:17.589Z,18.30
2022-09-14T04:27:55.025Z,18.40
2022-09-14T04:30:32.881Z,18.40
2022-09-14T04:33:01.357Z,18.40
2022-09-14T04:35:29.797Z,18.40
2022-09-14T04:37:58.305Z,18.40
2022-09-14T04:40:28.850Z,18.40
2022-09-14T04:42:57.371Z,18.40
2022-09-14T04:45:26.902Z,18.40
2022-09-14T04:47:55.615Z,18.30
2022-09-14T04:50:24.259Z,18.30
2022-09-14T04:52:54.072Z,18.30
2022-09-14T04:55:24.078Z,18.30
2022-09-14T04:57:53.840Z,18.30
2022-09-14T05:00:22.360Z,18.30
2022-09-14T05:02:50.973Z,18.30
2022-09-14T05:05:19.497Z,18.30
2022-09-14T05:07:47.978Z,18.30
2022-09-14T05:10:16.618Z,18.30
2022-09-14T05:12:45.110Z,18.30
2022-09-14T05:15:15.067Z,18.40
2022-09-14T05:17:43.631Z,18.30
2022-09-14T05:20:12.092Z,18.30
2022-09-14T05:22:40.541Z,18.30
2022-09-14T05:25:09.922Z,18.40
2022-09-14T05:27:38.376Z,18.30
2022-09-14T05:30:08.125Z,18.30
2022-09-14T05:32:38.024Z,18.40
2022-09-14T05:35:07.438Z,18.40
2022-09-14T05:37:35.876Z,18.30
2022-09-14T05:40:05.603Z,18.30
2022-09-14T05:42:34.225Z,18.40
2022-09-14T05:45:02.841Z,18.40
2022-09-14T05:47:34.903Z,18.30
2022-09-14T05:50:09.457Z,18.30
2022-09-14T05:52:37.893Z,18.30
2022-09-14T05:55:07.107Z,18.40
2022-09-14T05:57:35.653Z,18.40
2022-09-14T06:00:05.706Z,18.40
2022-09-14T06:02:40.557Z,18.40
2022-09-14T06:05:10.788Z,18.40
2022-09-14T06:07:39.342Z,18.40
2022-09-14T06:10:09.161Z,18.40
2022-09-14T06:12:37.790Z,18.40
2022-09-14T06:15:07.261Z,18.40
2022-09-14T06:17:35.777Z,18.40
2022-09-14T06:20:06.019Z,18.40
2022-09-14T06:22:36.009Z,18.40
2022-09-14T06:25:04.669Z,18.40
2022-09-14T06:27:33.141Z,18.40
2022-09-14T06:30:01.609Z,18.40
2022-09-14T06:32:31.307Z,18.40
2022-09-14T06:34:59.824Z,18.40
2022-09-14T06:37:28.347Z,18.40
2022-09-14T06:39:58.255Z,18.40
2022-09-14T06:42:26.726Z,18.40
2022-09-14T06:44:55.146Z,18.40
2022-09-14T06:47:23.785Z,18.40
2022-09-14T06:49:53.000Z,18.40
2022-09-14T06:52:21.472Z,18.40
2022-09-14T06:54:49.899Z,18.40
2022-09-14T06:57:19.710Z,18.40
2022-09-14T06:59:48.203Z,18.40
2022-09-14T07:02:16.715Z,18.40
2022-09-14T07:04:45.203Z,18.40
2022-09-14T07:07:15.912Z,18.40
2022-09-14T07:09:44.456Z,18.40
2022-09-14T07:12:12.925Z,18.40
2022-09-14T07:14:42.726Z,18.40
2022-09-14T07:17:11.177Z,18.40
2022-09-14T07:19:39.669Z,18.40
2022-09-14T07:22:08.218Z,18.40
2022-09-14T07:24:36.658Z,18.40
2022-09-14T07:27:05.330Z,18.50
2022-09-14T07:29:33.843Z,18.40
2022-09-14T07:32:03.982Z,18.50
2022-09-14T07:34:32.498Z,18.50
2022-09-14T07:37:00.961Z,18.40
2022-09-14T07:39:29.404Z,18.50
2022-09-14T07:41:57.893Z,18.50
2022-09-14T07:44:26.322Z,18.50
2022-09-14T07:46:54.922Z,18.50
2022-09-14T07:49:24.721Z,18.50
2022-09-14T07:51:54.325Z,18.50
2022-09-14T07:54:22.908Z,18.50
2022-09-14T07:56:51.517Z,18.50
2022-09-14T07:59:35.730Z,18.50
2022-09-14T08:02:07.493Z,18.50
2022-09-14T08:04:39.189Z,18.50
2022-09-14T08:07:08.453Z,18.50
2022-09-14T08:09:38.324Z,18.60
2022-09-14T08:12:06.869Z,18.50
2022-09-14T08:14:35.351Z,18.60
2022-09-14T08:17:04.413Z,18.60
2022-09-14T08:19:32.897Z,18.70
2022-09-14T08:22:02.818Z,18.60
2022-09-14T08:24:32.267Z,18.60
2022-09-14T08:27:00.853Z,18.70
2022-09-14T08:29:29.408Z,18.70
2022-09-14T08:31:58.499Z,18.60
2022-09-14T08:34:27.034Z,18.60
2022-09-14T08:36:55.455Z,18.60
2022-09-14T08:39:25.246Z,18.60
2022-09-14T08:41:56.409Z,18.60
2022-09-14T08:44:27.927Z,18.60
2022-09-14T08:47:02.722Z,18.60
2022-09-14T08:49:46.066Z,18.70
2022-09-14T08:52:22.894Z,18.70
2022-09-14T08:54:55.297Z,18.70
2022-09-14T08:57:30.541Z,18.70
2022-09-14T09:00:07.593Z,18.80
2022-09-14T09:03:11.924Z,18.80
2022-09-14T09:05:47.882Z,18.80
2022-09-14T09:08:20.966Z,18.80
2022-09-14T09:10:53.414Z,18.90
2022-09-14T09:13:26.644Z,18.90
2022-09-14T09:15:59.333Z,18.80
2022-09-14T09:18:37.156Z,18.80
2022-09-14T09:21:10.589Z,18.80
2022-09-14T09:23:39.544Z,18.70
2022-09-14T09:26:27.232Z,18.60
2022-09-14T09:28:58.299Z,18.60
2022-09-14T09:31:31.683Z,18.60
2022-09-14T09:34:20.889Z,18.60
2022-09-14T09:36:50.758Z,18.60
2022-09-14T09:39:19.430Z,18.70
2022-09-14T09:41:53.831Z,18.60
2022-09-14T09:44:22.351Z,18.60
2022-09-14T09:46:54.047Z,18.50
2022-09-14T09:49:25.845Z,18.50
2022-09-14T09:51:54.553Z,18.50
2022-09-14T09:54:27.587Z,18.40
2022-09-14T09:56:59.525Z,18.40
2022-09-14T09:59:35.229Z,18.40
2022-09-14T10:02:23.512Z,18.40
2022-09-14T10:05:01.347Z,18.40
2022-09-14T10:07:31.902Z,18.40
2022-09-14T10:10:02.526Z,18.50
2022-09-14T10:12:32.671Z,18.40
2022-09-14T10:15:17.166Z,18.50
2022-09-14T10:18:10.629Z,18.50
2022-09-14T10:20:40.986Z,18.60
2022-09-14T10:23:25.985Z,18.50
2022-09-14T10:26:15.436Z,18.60
2022-09-14T10:28:47.047Z,18.50
2022-09-14T10:31:23.886Z,18.60
2022-09-14T10:33:55.867Z,18.60
2022-09-14T10:36:27.463Z,18.60
2022-09-14T10:38:59.318Z,18.50
2022-09-14T10:41:34.197Z,18.50
2022-09-14T10:44:44.442Z,18.50
2022-09-14T10:47:29.474Z,18.50
2022-09-14T10:50:11.432Z,18.50
2022-09-14T10:52:49.786Z,18.50
2022-09-14T10:55:32.142Z,18.40
2022-09-14T10:58:18.139Z,18.40
2022-09-14T11:00:58.446Z,18.40
2022-09-14T11:03:46.005Z,18.30
2022-09-14T11:06:30.448Z,18.40
2022-09-14T11:09:04.089Z,18.30
2022-09-14T11:12:49.445Z,18.30
2022-09-14T11:15:24.316Z,18.30
2022-09-14T11:18:12.128Z,18.30
2022-09-14T11:20:51.689Z,18.30
2022-09-14T11:23:31.309Z,18.30
2022-09-14T11:26:04.540Z,18.30
2022-09-14T11:28:41.018Z,18.20
2022-09-14T11:31:15.039Z,18.20
2022-09-14T11:33:49.863Z,18.20
2022-09-14T11:36:23.659Z,18.20
2022-09-14T11:38:56.193Z,18.30
2022-09-14T11:41:32.189Z,18.30
2022-09-14T11:44:05.748Z,18.30
2022-09-14T11:46:37.983Z,18.30
2022-09-14T11:49:15.361Z,18.30
2022-09-14T11:51:50.308Z,18.30
2022-09-14T11:54:20.712Z,18.30
2022-09-14T11:56:51.608Z,18.30
2022-09-14T11:59:38.055Z,18.30
2022-09-14T12:02:52.427Z,18.30
2022-09-14T12:05:29.857Z,18.40
2022-09-14T12:08:40.537Z,18.50
2022-09-14T12:11:28.565Z,18.50
2022-09-14T12:14:15.640Z,18.60
2022-09-14T12:20:52.815Z,18.70
2022-09-14T12:23:28.056Z,18.70
2022-09-14T12:26:14.672Z,18.70
2022-09-14T12:28:48.916Z,18.70
2022-09-14T12:32:02.118Z,18.70
2022-09-14T12:34:33.096Z,18.80
2022-09-14T12:37:33.330Z,18.80
2022-09-14T12:40:38.541Z,18.80
2022-09-14T12:43:47.216Z,18.80
2022-09-14T12:46:42.779Z,18.70
2022-09-14T12:49:37.410Z,18.70
2022-09-14T12:52:22.045Z,18.70
2022-09-14T12:55:01.681Z,18.70
2022-09-14T12:57:37.241Z,18.80
2022-09-14T13:00:14.429Z,18.60
2022-09-14T13:03:10.417Z,18.70
2022-09-14T13:05:43.776Z,18.60
2022-09-14T13:08:13.652Z,18.60
2022-09-14T13:10:51.721Z,18.60
2022-09-14T13:13:23.161Z,18.50
2022-09-14T13:15:54.778Z,18.50
2022-09-14T13:18:32.782Z,18.50
2022-09-14T13:21:03.101Z,18.50
2022-09-14T13:23:33.973Z,18.50
2022-09-14T13:26:11.193Z,18.40
2022-09-14T13:28:40.333Z,18.40
2022-09-14T13:31:14.563Z,18.40
2022-09-14T13:33:49.840Z,18.30
2022-09-14T13:36:21.210Z,18.30
2022-09-14T13:38:50.338Z,18.30
2022-09-14T13:41:23.255Z,18.30
2022-09-14T13:43:55.133Z,18.20
2022-09-14T13:46:25.718Z,18.20
2022-09-14T13:48:55.111Z,18.20
2022-09-14T13:51:26.629Z,18.20
2022-09-14T13:53:57.001Z,18.20
2022-09-14T13:56:30.903Z,18.20
2022-09-14T13:59:20.571Z,18.20
2022-09-14T14:01:58.838Z,18.20
2022-09-14T14:04:35.390Z,18.20
2022-09-14T14:07:16.249Z,18.20
2022-09-14T14:09:50.632Z,18.20
2022-09-14T14:12:29.962Z,18.20
2022-09-14T14:15:00.138Z,18.10
2022-09-14T14:17:39.355Z,18.20
2022-09-14T14:20:35.070Z,18.10
2022-09-14T14:23:20.465Z,18.20
2022-09-14T14:25:51.930Z,18.20
2022-09-14T14:28:26.313Z,18.10
2022-09-14T14:30:56.064Z,18.10
2022-09-14T14:33:25.010Z,18.10
2022-09-14T14:35:56.399Z,18.10
2022-09-14T14:38:25.701Z,18.10
2022-09-14T14:40:58.007Z,18.10
2022-09-14T14:43:28.860Z,18.10
2022-09-14T14:45:58.990Z,18.00
2022-09-14T14:48:28.570Z,18.10
2022-09-14T14:50:57.043Z,18.10
2022-09-14T14:53:26.580Z,18.10
2022-09-14T14:55:55.032Z,18.10
2022-09-14T14:58:23.917Z,18.10
2022-09-14T15:00:54.584Z,18.00
2022-09-14T15:03:23.297Z,18.00
2022-09-14T15:05:51.916Z,17.90
2022-09-14T15:08:20.804Z,17.90
2022-09-14T15:10:49.617Z,17.80
2022-09-14T15:13:18.164Z,17.80
2022-09-14T15:15:46.694Z,17.80
2022-09-14T15:18:16.563Z,17.70
2022-09-14T15:20:45.070Z,17.70
2022-09-14T15:23:14.813Z,17.60
2022-09-14T15:25:43.493Z,17.60
2022-09-14T15:28:11.982Z,17.60
2022-09-14T15:30:41.634Z,17.60
2022-09-14T15:33:10.102Z,17.50
2022-09-14T15:35:40.109Z,17.50
2022-09-14T15:38:08.557Z,17.50
2022-09-14T15:40:37.151Z,17.50
2022-09-14T15:43:05.738Z,17.50
2022-09-14T15:45:34.339Z,17.50
2022-09-14T15:48:03.582Z,17.50
2022-09-14T15:50:32.012Z,17.50
2022-09-14T15:53:02.833Z,17.50
2022-09-14T15:55:31.406Z,17.50
2022-09-14T15:57:59.972Z,17.50
2022-09-14T16:00:28.481Z,17.50
2022-09-14T16:02:56.995Z,17.50
2022-09-14T16:05:25.478Z,17.50
2022-09-14T16:07:54.585Z,17.60
2022-09-14T16:10:25.668Z,17.50
2022-09-14T16:12:56.161Z,17.50
2022-09-14T16:15:24.943Z,17.60
2022-09-14T16:17:55.400Z,17.60
2022-09-14T16:20:24.105Z,17.60
2022-09-14T16:22:52.874Z,17.60
2022-09-14T16:25:21.604Z,17.60
2022-09-14T16:27:51.415Z,17.70
2022-09-14T16:30:19.982Z,17.60
2022-09-14T16:32:48.688Z,17.60
2022-09-14T16:35:17.313Z,17.60
2022-09-14T16:37:45.798Z,17.60
2022-09-14T16:40:14.366Z,17.60
2022-09-14T16:42:42.937Z,17.60
2022-09-14T16:45:12.775Z,17.60
2022-09-14T16:47:41.607Z,17.60
2022-09-14T16:50:10.627Z,17.60
2022-09-14T16:52:39.066Z,17.60
2022-09-14T16:55:08.917Z,17.50
2022-09-14T16:57:37.367Z,17.50
2022-09-14T17:00:06.808Z,17.50
2022-09-14T17:02:36.827Z,17.50
2022-09-14T17:05:06.079Z,17.40
2022-09-14T17:07:34.705Z,17.40
2022-09-14T17:10:03.181Z,17.30
2022-09-14T17:12:31.809Z,17.30
2022-09-14T17:15:00.252Z,17.30
2022-09-14T17:17:28.809Z,17.30
2022-09-14T17:19:58.615Z,17.10
2022-09-14T17:22:27.117Z,17.20
2022-09-14T17:24:55.536Z,17.30
2022-09-14T17:27:23.939Z,17.30
2022-09-14T17:29:52.925Z,17.30
2022-09-14T17:32:21.394Z,17.20
2022-09-14T17:34:49.922Z,17.20
2022-09-14T17:37:19.748Z,17.10
2022-09-14T17:39:48.377Z,17.20
2022-09-14T17:42:16.913Z,17.10
2022-09-14T17:44:45.434Z,17.10
2022-09-14T17:47:14.304Z,17.10
2022-09-14T17:49:42.781Z,17.10
2022-09-14T17:52:11.212Z,17.00
2022-09-14T17:54:41.029Z,17.00
2022-09-14T17:57:09.605Z,17.00
2022-09-14T17:59:38.062Z,17.00
2022-09-14T18:02:07.190Z,17.00
2022-09-14T18:04:35.758Z,17.00
2022-09-14T18:07:05.815Z,16.90
2022-09-14T18:09:34.345Z,16.90
2022-09-14T18:12:04.722Z,16.90
2022-09-14T18:14:33.190Z,16.80
2022-09-14T18:17:01.594Z,16.80
2022-09-14T18:19:30.056Z,16.80
2022-09-14T18:21:58.622Z,16.80
2022-09-14T18:24:27.085Z,16.80
2022-09-14T18:26:55.561Z,16.80
2022-09-14T18:29:25.784Z,16.80
2022-09-14T18:31:55.174Z,16.80
2022-09-14T18:34:26.008Z,16.70
2022-09-14T18:36:54.551Z,16.70
2022-09-14T18:39:23.016Z,16.70
2022-09-14T18:41:53.697Z,16.70
2022-09-14T18:44:22.598Z,16.70
2022-09-14T18:46:52.916Z,16.70
2022-09-14T18:49:21.475Z,16.60
2022-09-14T18:51:50.238Z,16.70
2022-09-14T18:54:19.041Z,16.70
2022-09-14T18:56:47.562Z,16.70
2022-09-14T18:59:16.490Z,16.60
2022-09-14T19:01:45.280Z,16.60
2022-09-14T19:04:15.806Z,16.60
2022-09-14T19:06:44.710Z,16.60
2022-09-14T19:09:13.411Z,16.60
2022-09-14T19:11:42.076Z,16.60
2022-09-14T19:14:13.320Z,16.60
2022-09-14T19:16:42.861Z,16.70
2022-09-14T19:19:14.642Z,16.60
2022-09-14T19:21:45.502Z,16.70
2022-09-14T19:24:15.306Z,16.60
2022-09-14T19:26:45.943Z,16.60
2022-09-14T19:29:15.570Z,16.60
2022-09-14T19:31:44.521Z,16.50
2022-09-14T19:34:13.329Z,16.50
2022-09-14T19:36:41.799Z,16.50
2022-09-14T19:39:12.048Z,16.50
2022-09-14T19:41:40.616Z,16.50
2022-09-14T19:44:09.714Z,16.50
2022-09-14T19:46:39.464Z,16.40
2022-09-14T19:49:08.656Z,16.40
2022-09-14T19:51:37.117Z,16.40
2022-09-14T19:54:05.756Z,16.40
2022-09-14T19:56:35.748Z,16.40
2022-09-14T19:59:06.146Z,16.50
2022-09-14T20:01:36.126Z,16.50
2022-09-14T20:04:05.651Z,16.40
2022-09-14T20:06:36.468Z,16.40
2022-09-14T20:09:07.040Z,16.40
2022-09-14T20:11:38.785Z,16.40
2022-09-14T20:14:09.226Z,16.30
2022-09-14T20:16:40.177Z,16.40
2022-09-14T20:19:10.521Z,16.40
2022-09-14T20:21:41.198Z,16.40
2022-09-14T20:24:16.730Z,16.40
2022-09-14T20:26:48.582Z,16.40
2022-09-14T20:29:18.678Z,16.40
2022-09-14T20:31:47.945Z,16.40
2022-09-14T20:34:19.575Z,16.40
2022-09-14T20:36:48.998Z,16.40
2022-09-14T20:39:17.733Z,16.30
2022-09-14T20:41:48.150Z,16.30
2022-09-14T20:44:21.865Z,16.30
2022-09-14T20:46:51.137Z,16.30
2022-09-14T20:49:23.246Z,16.30
2022-09-14T20:51:54.079Z,16.20
2022-09-14T20:54:23.194Z,16.20
2022-09-14T20:56:53.165Z,16.10
2022-09-14T20:59:22.844Z,16.10
2022-09-14T21:01:52.601Z,16.20
2022-09-14T21:04:22.949Z,16.10
2022-09-14T21:06:55.173Z,16.10
2022-09-14T21:09:25.094Z,16.10
2022-09-14T21:11:55.225Z,16.10
2022-09-14T21:14:24.378Z,16.10
2022-09-14T21:16:56.861Z,16.10
2022-09-14T21:19:28.451Z,16.00
2022-09-14T21:21:57.142Z,16.00
2022-09-14T21:24:25.756Z,16.00
2022-09-14T21:26:57.594Z,16.00
2022-09-14T21:29:26.287Z,16.00
2022-09-14T21:31:54.742Z,16.00
2022-09-14T21:34:23.255Z,16.00
2022-09-14T21:36:52.700Z,16.00
2022-09-14T21:39:23.005Z,16.00
2022-09-14T21:41:57.515Z,16.10
2022-09-14T21:44:31.042Z,16.20
2022-09-14T21:46:59.606Z,16.10
2022-09-14T21:49:28.114Z,16.00
2022-09-14T21:51:56.622Z,16.00
2022-09-14T21:54:25.088Z,15.90
2022-09-14T21:56:54.097Z,15.90
2022-09-14T21:59:23.798Z,15.90
2022-09-14T22:01:53.827Z,15.90
2022-09-14T22:04:24.694Z,15.90
2022-09-14T22:06:53.830Z,15.80
2022-09-14T22:09:24.396Z,15.80
2022-09-14T22:11:53.800Z,15.80
2022-09-14T22:14:24.512Z,15.80
2022-09-14T22:16:54.877Z,15.80
2022-09-14T22:19:25.096Z,15.80
2022-09-14T22:21:54.367Z,15.80
2022-09-14T22:24:25.416Z,15.80
2022-09-14T22:26:54.609Z,15.80
2022-09-14T22:29:23.151Z,15.70
2022-09-14T22:31:52.272Z,15.70
2022-09-14T22:34:22.324Z,15.70
2022-09-14T22:36:50.791Z,15.70
2022-09-14T22:39:19.410Z,15.70
2022-09-14T22:41:47.841Z,15.70
2022-09-14T22:44:16.548Z,15.70
2022-09-14T22:46:45.986Z,15.70
2022-09-14T22:49:14.447Z,15.60
2022-09-14T22:51:44.282Z,15.60
2022-09-14T22:54:12.791Z,15.60
2022-09-14T22:56:41.270Z,15.60
2022-09-14T22:59:11.135Z,15.60
2022-09-14T23:01:41.963Z,15.60
2022-09-14T23:04:12.781Z,15.60
2022-09-14T23:06:43.602Z,15.60
2022-09-14T23:09:16.350Z,15.60
2022-09-14T23:11:45.564Z,15.60
2022-09-14T23:14:15.353Z,15.60
2022-09-14T23:16:45.619Z,15.60
2022-09-14T23:19:16.161Z,15.60
2022-09-14T23:21:44.859Z,15.60
2022-09-14T23:24:15.522Z,15.50
2022-09-14T23:26:44.073Z,15.50
2022-09-14T23:29:15.700Z,15.50
2022-09-14T23:31:44.670Z,15.50
2022-09-14T23:34:13.192Z,15.50
2022-09-14T23:36:41.997Z,15.50
2022-09-14T23:39:10.680Z,15.50
2022-09-14T23:41:40.751Z,15.50
2022-09-14T23:44:10.678Z,15.50
2022-09-14T23:46:39.165Z,15.50
2022-09-14T23:49:07.661Z,15.50
2022-09-14T23:51:37.208Z,15.40
2022-09-14T23:54:06.505Z,15.40
2022-09-14T23:56:35.016Z,15.40
2022-09-14T23:59:05.041Z,15.40
